sensor_id;sensor_type;location;lat;lon;timestamp;P1;durP1;ratioP1;P2;durP2;ratioP2
5967;SDS011;3010;51.028;4.170;2023-11-19T00:01:15;23.90;;;11.37;;
5967;SDS011;3010;51.028;4.170;2023-11-19T00:03:42;19.87;;;10.93;;
5967;SDS011;3010;51.028;4.170;2023-11-19T00:06:09;29.50;;;10.77;;
5967;SDS011;3010;51.028;4.170;2023-11-19T00:08:35;18.93;;;9.60;;
5967;SDS011;3010;51.028;4.170;2023-11-19T00:11:02;29.00;;;10.47;;
5967;SDS011;3010;51.028;4.170;2023-11-19T00:13:28;26.75;;;9.27;;
5967;SDS011;3010;51.028;4.170;2023-11-19T00:15:55;24.93;;;9.40;;
5967;SDS011;3010;51.028;4.170;2023-11-19T00:18:22;24.00;;;8.43;;
5967;SDS011;3010;51.028;4.170;2023-11-19T00:20:48;21.40;;;8.73;;
5967;SDS011;3010;51.028;4.170;2023-11-19T00:23:15;25.63;;;8.77;;
5967;SDS011;3010;51.028;4.170;2023-11-19T00:25:41;22.37;;;8.77;;
5967;SDS011;3010;51.028;4.170;2023-11-19T00:28:08;25.27;;;7.70;;
5967;SDS011;3010;51.028;4.170;2023-11-19T00:30:34;28.77;;;9.53;;
5967;SDS011;3010;51.028;4.170;2023-11-19T00:33:01;31.77;;;9.77;;
5967;SDS011;3010;51.028;4.170;2023-11-19T00:35:28;22.00;;;8.27;;
5967;SDS011;3010;51.028;4.170;2023-11-19T00:37:54;34.53;;;9.40;;
5967;SDS011;3010;51.028;4.170;2023-11-19T00:40:21;25.83;;;8.63;;
5967;SDS011;3010;51.028;4.170;2023-11-19T00:42:47;24.77;;;7.60;;
5967;SDS011;3010;51.028;4.170;2023-11-19T00:45:14;27.08;;;7.75;;
5967;SDS011;3010;51.028;4.170;2023-11-19T00:47:41;33.37;;;8.17;;
5967;SDS011;3010;51.028;4.170;2023-11-19T00:50:07;26.60;;;7.70;;
5967;SDS011;3010;51.028;4.170;2023-11-19T00:52:37;29.50;;;7.53;;
5967;SDS011;3010;51.028;4.170;2023-11-19T00:55:03;25.60;;;7.37;;
5967;SDS011;3010;51.028;4.170;2023-11-19T00:57:30;30.43;;;7.40;;
5967;SDS011;3010;51.028;4.170;2023-11-19T00:59:57;29.03;;;7.60;;
5967;SDS011;3010;51.028;4.170;2023-11-19T01:02:23;23.57;;;7.90;;
5967;SDS011;3010;51.028;4.170;2023-11-19T01:04:50;35.37;;;7.27;;
5967;SDS011;3010;51.028;4.170;2023-11-19T01:07:16;35.40;;;8.63;;
5967;SDS011;3010;51.028;4.170;2023-11-19T01:09:43;25.77;;;7.03;;
5967;SDS011;3010;51.028;4.170;2023-11-19T01:12:09;24.40;;;6.83;;
5967;SDS011;3010;51.028;4.170;2023-11-19T01:14:36;32.73;;;8.17;;
5967;SDS011;3010;51.028;4.170;2023-11-19T01:17:03;32.80;;;7.43;;
5967;SDS011;3010;51.028;4.170;2023-11-19T01:19:29;32.97;;;7.70;;
5967;SDS011;3010;51.028;4.170;2023-11-19T01:21:56;26.87;;;7.32;;
5967;SDS011;3010;51.028;4.170;2023-11-19T01:24:22;30.80;;;6.87;;
5967;SDS011;3010;51.028;4.170;2023-11-19T01:26:49;27.73;;;6.50;;
5967;SDS011;3010;51.028;4.170;2023-11-19T01:29:16;19.23;;;5.50;;
5967;SDS011;3010;51.028;4.170;2023-11-19T01:31:42;27.27;;;6.75;;
5967;SDS011;3010;51.028;4.170;2023-11-19T01:34:09;32.70;;;6.27;;
5967;SDS011;3010;51.028;4.170;2023-11-19T01:36:35;29.23;;;7.33;;
5967;SDS011;3010;51.028;4.170;2023-11-19T01:39:02;28.27;;;6.97;;
5967;SDS011;3010;51.028;4.170;2023-11-19T01:41:29;30.87;;;7.63;;
5967;SDS011;3010;51.028;4.170;2023-11-19T01:43:55;33.53;;;6.07;;
5967;SDS011;3010;51.028;4.170;2023-11-19T01:46:22;32.33;;;6.30;;
5967;SDS011;3010;51.028;4.170;2023-11-19T01:48:48;27.70;;;6.03;;
5967;SDS011;3010;51.028;4.170;2023-11-19T01:51:15;27.83;;;6.40;;
5967;SDS011;3010;51.028;4.170;2023-11-19T01:53:42;25.60;;;6.30;;
5967;SDS011;3010;51.028;4.170;2023-11-19T01:56:08;35.10;;;7.77;;
5967;SDS011;3010;51.028;4.170;2023-11-19T01:58:38;32.73;;;6.70;;
5967;SDS011;3010;51.028;4.170;2023-11-19T02:01:08;34.47;;;6.57;;
5967;SDS011;3010;51.028;4.170;2023-11-19T02:03:31;29.77;;;5.77;;
5967;SDS011;3010;51.028;4.170;2023-11-19T02:05:58;28.90;;;6.30;;
5967;SDS011;3010;51.028;4.170;2023-11-19T02:08:24;31.20;;;6.30;;
5967;SDS011;3010;51.028;4.170;2023-11-19T02:10:51;38.23;;;7.17;;
5967;SDS011;3010;51.028;4.170;2023-11-19T02:13:20;28.90;;;6.23;;
5967;SDS011;3010;51.028;4.170;2023-11-19T02:15:47;32.73;;;7.10;;
5967;SDS011;3010;51.028;4.170;2023-11-19T02:18:17;25.10;;;6.33;;
5967;SDS011;3010;51.028;4.170;2023-11-19T02:20:43;22.80;;;6.30;;
5967;SDS011;3010;51.028;4.170;2023-11-19T02:23:09;25.43;;;5.80;;
5967;SDS011;3010;51.028;4.170;2023-11-19T02:25:36;27.17;;;6.10;;
5967;SDS011;3010;51.028;4.170;2023-11-19T02:28:03;27.10;;;6.60;;
5967;SDS011;3010;51.028;4.170;2023-11-19T02:30:29;24.40;;;5.83;;
5967;SDS011;3010;51.028;4.170;2023-11-19T02:32:56;26.07;;;6.30;;
5967;SDS011;3010;51.028;4.170;2023-11-19T02:35:25;23.13;;;6.47;;
5967;SDS011;3010;51.028;4.170;2023-11-19T02:37:52;35.20;;;7.30;;
5967;SDS011;3010;51.028;4.170;2023-11-19T02:40:18;23.87;;;6.47;;
5967;SDS011;3010;51.028;4.170;2023-11-19T02:42:45;41.57;;;7.43;;
5967;SDS011;3010;51.028;4.170;2023-11-19T02:45:11;38.23;;;6.60;;
5967;SDS011;3010;51.028;4.170;2023-11-19T02:47:38;35.00;;;6.97;;
5967;SDS011;3010;51.028;4.170;2023-11-19T02:50:05;37.70;;;6.87;;
5967;SDS011;3010;51.028;4.170;2023-11-19T02:52:31;33.92;;;7.37;;
5967;SDS011;3010;51.028;4.170;2023-11-19T02:54:58;34.97;;;7.50;;
5967;SDS011;3010;51.028;4.170;2023-11-19T02:57:24;30.30;;;6.80;;
5967;SDS011;3010;51.028;4.170;2023-11-19T02:59:51;26.23;;;6.33;;
5967;SDS011;3010;51.028;4.170;2023-11-19T03:02:17;37.90;;;6.93;;
5967;SDS011;3010;51.028;4.170;2023-11-19T03:04:44;28.80;;;6.90;;
5967;SDS011;3010;51.028;4.170;2023-11-19T03:07:11;28.43;;;6.13;;
5967;SDS011;3010;51.028;4.170;2023-11-19T03:09:37;39.23;;;7.23;;
5967;SDS011;3010;51.028;4.170;2023-11-19T03:12:04;33.20;;;6.80;;
5967;SDS011;3010;51.028;4.170;2023-11-19T03:14:31;32.17;;;6.90;;
5967;SDS011;3010;51.028;4.170;2023-11-19T03:16:57;31.17;;;6.63;;
5967;SDS011;3010;51.028;4.170;2023-11-19T03:19:24;32.63;;;6.00;;
5967;SDS011;3010;51.028;4.170;2023-11-19T03:21:50;35.20;;;6.47;;
5967;SDS011;3010;51.028;4.170;2023-11-19T03:24:17;35.43;;;5.77;;
5967;SDS011;3010;51.028;4.170;2023-11-19T03:26:47;36.90;;;6.40;;
5967;SDS011;3010;51.028;4.170;2023-11-19T03:29:10;39.00;;;7.13;;
5967;SDS011;3010;51.028;4.170;2023-11-19T03:31:41;34.83;;;6.53;;
5967;SDS011;3010;51.028;4.170;2023-11-19T03:34:03;29.57;;;7.07;;
5967;SDS011;3010;51.028;4.170;2023-11-19T03:36:33;35.33;;;6.97;;
5967;SDS011;3010;51.028;4.170;2023-11-19T03:38:59;37.58;;;6.80;;
5967;SDS011;3010;51.028;4.170;2023-11-19T03:41:26;26.97;;;6.07;;
5967;SDS011;3010;51.028;4.170;2023-11-19T03:43:53;37.33;;;6.70;;
5967;SDS011;3010;51.028;4.170;2023-11-19T03:46:20;33.63;;;6.77;;
5967;SDS011;3010;51.028;4.170;2023-11-19T03:48:49;34.00;;;7.83;;
5967;SDS011;3010;51.028;4.170;2023-11-19T03:51:15;35.53;;;7.00;;
5967;SDS011;3010;51.028;4.170;2023-11-19T03:53:42;36.67;;;6.37;;
5967;SDS011;3010;51.028;4.170;2023-11-19T03:56:08;38.03;;;6.53;;
5967;SDS011;3010;51.028;4.170;2023-11-19T03:58:35;37.07;;;6.93;;
5967;SDS011;3010;51.028;4.170;2023-11-19T04:01:01;33.03;;;6.13;;
5967;SDS011;3010;51.028;4.170;2023-11-19T04:03:28;33.57;;;6.20;;
5967;SDS011;3010;51.028;4.170;2023-11-19T04:05:55;30.13;;;6.53;;
5967;SDS011;3010;51.028;4.170;2023-11-19T04:08:21;36.80;;;7.50;;
5967;SDS011;3010;51.028;4.170;2023-11-19T04:10:48;38.87;;;7.77;;
5967;SDS011;3010;51.028;4.170;2023-11-19T04:13:14;30.50;;;5.70;;
5967;SDS011;3010;51.028;4.170;2023-11-19T04:15:41;37.67;;;7.50;;
5967;SDS011;3010;51.028;4.170;2023-11-19T04:18:08;36.10;;;6.17;;
5967;SDS011;3010;51.028;4.170;2023-11-19T04:20:34;37.87;;;7.17;;
5967;SDS011;3010;51.028;4.170;2023-11-19T04:23:01;50.97;;;8.00;;
5967;SDS011;3010;51.028;4.170;2023-11-19T04:25:27;26.20;;;5.67;;
5967;SDS011;3010;51.028;4.170;2023-11-19T04:27:54;30.10;;;6.27;;
5967;SDS011;3010;51.028;4.170;2023-11-19T04:30:20;42.37;;;6.70;;
5967;SDS011;3010;51.028;4.170;2023-11-19T04:32:47;38.07;;;6.50;;
5967;SDS011;3010;51.028;4.170;2023-11-19T04:35:14;39.90;;;7.40;;
5967;SDS011;3010;51.028;4.170;2023-11-19T04:37:41;33.53;;;7.80;;
5967;SDS011;3010;51.028;4.170;2023-11-19T04:40:07;36.30;;;6.10;;
5967;SDS011;3010;51.028;4.170;2023-11-19T04:42:33;33.80;;;6.33;;
5967;SDS011;3010;51.028;4.170;2023-11-19T04:45:00;32.20;;;6.17;;
5967;SDS011;3010;51.028;4.170;2023-11-19T04:47:27;37.40;;;6.90;;
5967;SDS011;3010;51.028;4.170;2023-11-19T04:49:53;39.53;;;8.05;;
5967;SDS011;3010;51.028;4.170;2023-11-19T04:52:20;34.10;;;6.90;;
5967;SDS011;3010;51.028;4.170;2023-11-19T04:54:46;40.17;;;8.23;;
5967;SDS011;3010;51.028;4.170;2023-11-19T04:57:13;38.10;;;7.55;;
5967;SDS011;3010;51.028;4.170;2023-11-19T04:59:40;31.87;;;7.28;;
5967;SDS011;3010;51.028;4.170;2023-11-19T05:02:06;29.20;;;6.50;;
5967;SDS011;3010;51.028;4.170;2023-11-19T05:04:33;45.87;;;7.27;;
5967;SDS011;3010;51.028;4.170;2023-11-19T05:06:59;44.47;;;6.90;;
5967;SDS011;3010;51.028;4.170;2023-11-19T05:09:26;29.97;;;5.97;;
5967;SDS011;3010;51.028;4.170;2023-11-19T05:11:53;36.10;;;7.20;;
5967;SDS011;3010;51.028;4.170;2023-11-19T05:14:19;43.23;;;6.80;;
5967;SDS011;3010;51.028;4.170;2023-11-19T05:16:46;40.13;;;8.07;;
5967;SDS011;3010;51.028;4.170;2023-11-19T05:19:12;37.47;;;7.07;;
5967;SDS011;3010;51.028;4.170;2023-11-19T05:21:41;43.20;;;7.83;;
5967;SDS011;3010;51.028;4.170;2023-11-19T05:24:05;38.80;;;8.53;;
5967;SDS011;3010;51.028;4.170;2023-11-19T05:26:32;39.43;;;7.20;;
5967;SDS011;3010;51.028;4.170;2023-11-19T05:28:59;33.47;;;7.07;;
5967;SDS011;3010;51.028;4.170;2023-11-19T05:31:25;35.20;;;6.63;;
5967;SDS011;3010;51.028;4.170;2023-11-19T05:33:52;29.63;;;5.83;;
5967;SDS011;3010;51.028;4.170;2023-11-19T05:36:18;45.93;;;7.60;;
5967;SDS011;3010;51.028;4.170;2023-11-19T05:38:45;34.57;;;6.37;;
5967;SDS011;3010;51.028;4.170;2023-11-19T05:41:12;36.00;;;7.10;;
5967;SDS011;3010;51.028;4.170;2023-11-19T05:43:38;41.77;;;6.43;;
5967;SDS011;3010;51.028;4.170;2023-11-19T05:46:05;39.27;;;8.10;;
5967;SDS011;3010;51.028;4.170;2023-11-19T05:48:31;37.87;;;7.07;;
5967;SDS011;3010;51.028;4.170;2023-11-19T05:50:58;40.30;;;7.37;;
5967;SDS011;3010;51.028;4.170;2023-11-19T05:53:25;40.00;;;7.57;;
5967;SDS011;3010;51.028;4.170;2023-11-19T05:55:51;50.57;;;7.57;;
5967;SDS011;3010;51.028;4.170;2023-11-19T05:58:27;42.23;;;7.43;;
5967;SDS011;3010;51.028;4.170;2023-11-19T06:00:53;47.37;;;8.57;;
5967;SDS011;3010;51.028;4.170;2023-11-19T06:03:19;43.43;;;8.00;;
5967;SDS011;3010;51.028;4.170;2023-11-19T06:05:46;38.47;;;7.37;;
5967;SDS011;3010;51.028;4.170;2023-11-19T06:08:12;34.57;;;7.33;;
5967;SDS011;3010;51.028;4.170;2023-11-19T06:10:40;38.57;;;6.83;;
5967;SDS011;3010;51.028;4.170;2023-11-19T06:13:08;34.60;;;6.80;;
5967;SDS011;3010;51.028;4.170;2023-11-19T06:15:35;35.23;;;7.40;;
5967;SDS011;3010;51.028;4.170;2023-11-19T06:18:02;38.50;;;7.03;;
5967;SDS011;3010;51.028;4.170;2023-11-19T06:20:28;37.23;;;6.73;;
5967;SDS011;3010;51.028;4.170;2023-11-19T06:22:55;40.40;;;7.33;;
5967;SDS011;3010;51.028;4.170;2023-11-19T06:25:21;40.37;;;7.33;;
5967;SDS011;3010;51.028;4.170;2023-11-19T06:27:48;41.50;;;7.20;;
5967;SDS011;3010;51.028;4.170;2023-11-19T06:30:14;41.57;;;7.57;;
5967;SDS011;3010;51.028;4.170;2023-11-19T06:32:41;40.27;;;7.13;;
5967;SDS011;3010;51.028;4.170;2023-11-19T06:35:08;36.73;;;7.10;;
5967;SDS011;3010;51.028;4.170;2023-11-19T06:37:34;37.17;;;8.30;;
5967;SDS011;3010;51.028;4.170;2023-11-19T06:40:01;35.27;;;7.00;;
5967;SDS011;3010;51.028;4.170;2023-11-19T06:42:28;39.77;;;6.57;;
5967;SDS011;3010;51.028;4.170;2023-11-19T06:44:54;43.08;;;7.85;;
5967;SDS011;3010;51.028;4.170;2023-11-19T06:47:21;40.00;;;6.97;;
5967;SDS011;3010;51.028;4.170;2023-11-19T06:49:47;45.80;;;8.43;;
5967;SDS011;3010;51.028;4.170;2023-11-19T06:52:14;46.97;;;8.27;;
5967;SDS011;3010;51.028;4.170;2023-11-19T06:54:40;41.03;;;7.90;;
5967;SDS011;3010;51.028;4.170;2023-11-19T06:57:07;37.43;;;6.83;;
5967;SDS011;3010;51.028;4.170;2023-11-19T06:59:34;36.13;;;7.23;;
5967;SDS011;3010;51.028;4.170;2023-11-19T07:02:00;37.20;;;7.57;;
5967;SDS011;3010;51.028;4.170;2023-11-19T07:04:27;38.20;;;6.60;;
5967;SDS011;3010;51.028;4.170;2023-11-19T07:06:53;38.97;;;7.90;;
5967;SDS011;3010;51.028;4.170;2023-11-19T07:09:20;38.77;;;8.40;;
5967;SDS011;3010;51.028;4.170;2023-11-19T07:11:46;43.93;;;7.20;;
5967;SDS011;3010;51.028;4.170;2023-11-19T07:14:13;42.67;;;7.83;;
5967;SDS011;3010;51.028;4.170;2023-11-19T07:16:40;45.20;;;8.70;;
5967;SDS011;3010;51.028;4.170;2023-11-19T07:19:06;43.63;;;8.93;;
5967;SDS011;3010;51.028;4.170;2023-11-19T07:21:33;33.33;;;7.13;;
5967;SDS011;3010;51.028;4.170;2023-11-19T07:24:00;41.63;;;6.70;;
5967;SDS011;3010;51.028;4.170;2023-11-19T07:26:26;47.67;;;8.13;;
5967;SDS011;3010;51.028;4.170;2023-11-19T07:28:53;35.43;;;7.60;;
5967;SDS011;3010;51.028;4.170;2023-11-19T07:31:19;42.37;;;8.10;;
5967;SDS011;3010;51.028;4.170;2023-11-19T07:33:46;39.95;;;7.93;;
5967;SDS011;3010;51.028;4.170;2023-11-19T07:36:12;37.43;;;7.33;;
5967;SDS011;3010;51.028;4.170;2023-11-19T07:38:39;42.10;;;8.87;;
5967;SDS011;3010;51.028;4.170;2023-11-19T07:41:06;42.10;;;7.30;;
5967;SDS011;3010;51.028;4.170;2023-11-19T07:43:32;45.57;;;7.20;;
5967;SDS011;3010;51.028;4.170;2023-11-19T07:45:59;33.83;;;6.77;;
5967;SDS011;3010;51.028;4.170;2023-11-19T07:48:25;47.63;;;8.30;;
5967;SDS011;3010;51.028;4.170;2023-11-19T07:50:52;43.37;;;7.60;;
5967;SDS011;3010;51.028;4.170;2023-11-19T07:53:19;44.33;;;7.63;;
5967;SDS011;3010;51.028;4.170;2023-11-19T07:55:45;37.80;;;7.20;;
5967;SDS011;3010;51.028;4.170;2023-11-19T07:58:12;37.60;;;7.30;;
5967;SDS011;3010;51.028;4.170;2023-11-19T08:00:38;40.17;;;7.67;;
5967;SDS011;3010;51.028;4.170;2023-11-19T08:03:05;39.17;;;7.67;;
5967;SDS011;3010;51.028;4.170;2023-11-19T08:05:32;41.97;;;7.57;;
5967;SDS011;3010;51.028;4.170;2023-11-19T08:07:58;43.43;;;7.93;;
5967;SDS011;3010;51.028;4.170;2023-11-19T08:10:25;36.67;;;7.07;;
5967;SDS011;3010;51.028;4.170;2023-11-19T08:12:51;31.90;;;7.67;;
5967;SDS011;3010;51.028;4.170;2023-11-19T08:15:18;43.60;;;9.02;;
5967;SDS011;3010;51.028;4.170;2023-11-19T08:17:45;35.37;;;7.63;;
5967;SDS011;3010;51.028;4.170;2023-11-19T08:20:11;41.27;;;8.17;;
5967;SDS011;3010;51.028;4.170;2023-11-19T08:22:38;45.30;;;7.47;;
5967;SDS011;3010;51.028;4.170;2023-11-19T08:25:07;37.23;;;7.80;;
5967;SDS011;3010;51.028;4.170;2023-11-19T08:27:34;32.90;;;6.87;;
5967;SDS011;3010;51.028;4.170;2023-11-19T08:30:01;40.97;;;7.87;;
5967;SDS011;3010;51.028;4.170;2023-11-19T08:32:27;37.47;;;7.47;;
5967;SDS011;3010;51.028;4.170;2023-11-19T08:34:54;31.53;;;6.23;;
5967;SDS011;3010;51.028;4.170;2023-11-19T08:37:20;39.60;;;7.40;;
5967;SDS011;3010;51.028;4.170;2023-11-19T08:39:47;34.27;;;7.97;;
5967;SDS011;3010;51.028;4.170;2023-11-19T08:42:14;44.43;;;7.40;;
5967;SDS011;3010;51.028;4.170;2023-11-19T08:44:40;31.20;;;5.93;;
5967;SDS011;3010;51.028;4.170;2023-11-19T08:47:07;42.10;;;7.50;;
5967;SDS011;3010;51.028;4.170;2023-11-19T08:49:33;36.63;;;6.50;;
5967;SDS011;3010;51.028;4.170;2023-11-19T08:52:00;33.23;;;7.47;;
5967;SDS011;3010;51.028;4.170;2023-11-19T08:54:26;36.57;;;6.87;;
5967;SDS011;3010;51.028;4.170;2023-11-19T08:56:53;34.83;;;7.60;;
5967;SDS011;3010;51.028;4.170;2023-11-19T08:59:20;37.73;;;7.47;;
5967;SDS011;3010;51.028;4.170;2023-11-19T09:01:46;35.65;;;8.07;;
5967;SDS011;3010;51.028;4.170;2023-11-19T09:04:13;36.37;;;8.30;;
5967;SDS011;3010;51.028;4.170;2023-11-19T09:06:39;37.03;;;7.47;;
5967;SDS011;3010;51.028;4.170;2023-11-19T09:09:06;32.53;;;6.00;;
5967;SDS011;3010;51.028;4.170;2023-11-19T09:11:33;25.33;;;6.43;;
5967;SDS011;3010;51.028;4.170;2023-11-19T09:13:59;30.40;;;7.00;;
5967;SDS011;3010;51.028;4.170;2023-11-19T09:16:26;27.63;;;6.60;;
5967;SDS011;3010;51.028;4.170;2023-11-19T09:18:52;37.90;;;7.83;;
5967;SDS011;3010;51.028;4.170;2023-11-19T09:21:19;28.00;;;7.70;;
5967;SDS011;3010;51.028;4.170;2023-11-19T09:23:45;33.77;;;7.93;;
5967;SDS011;3010;51.028;4.170;2023-11-19T09:26:13;32.53;;;8.00;;
5967;SDS011;3010;51.028;4.170;2023-11-19T09:28:39;33.23;;;7.70;;
5967;SDS011;3010;51.028;4.170;2023-11-19T09:31:17;39.73;;;8.03;;
5967;SDS011;3010;51.028;4.170;2023-11-19T09:33:44;34.07;;;7.67;;
5967;SDS011;3010;51.028;4.170;2023-11-19T09:36:13;33.17;;;8.00;;
5967;SDS011;3010;51.028;4.170;2023-11-19T09:38:43;37.53;;;8.60;;
5967;SDS011;3010;51.028;4.170;2023-11-19T09:41:06;30.07;;;7.53;;
5967;SDS011;3010;51.028;4.170;2023-11-19T09:43:36;30.77;;;8.65;;
5967;SDS011;3010;51.028;4.170;2023-11-19T09:46:06;28.05;;;6.75;;
5967;SDS011;3010;51.028;4.170;2023-11-19T09:48:32;30.03;;;6.97;;
5967;SDS011;3010;51.028;4.170;2023-11-19T09:50:59;23.80;;;6.07;;
5967;SDS011;3010;51.028;4.170;2023-11-19T09:53:25;24.80;;;6.77;;
5967;SDS011;3010;51.028;4.170;2023-11-19T09:55:52;31.40;;;6.57;;
5967;SDS011;3010;51.028;4.170;2023-11-19T09:58:18;25.77;;;6.23;;
5967;SDS011;3010;51.028;4.170;2023-11-19T10:00:45;32.40;;;7.10;;
5967;SDS011;3010;51.028;4.170;2023-11-19T10:03:12;32.92;;;7.25;;
5967;SDS011;3010;51.028;4.170;2023-11-19T10:05:38;31.48;;;6.43;;
5967;SDS011;3010;51.028;4.170;2023-11-19T10:08:05;26.27;;;7.00;;
5967;SDS011;3010;51.028;4.170;2023-11-19T10:10:31;41.23;;;8.50;;
5967;SDS011;3010;51.028;4.170;2023-11-19T10:12:58;30.93;;;6.70;;
5967;SDS011;3010;51.028;4.170;2023-11-19T10:15:25;33.03;;;6.70;;
5967;SDS011;3010;51.028;4.170;2023-11-19T10:17:51;22.87;;;5.43;;
5967;SDS011;3010;51.028;4.170;2023-11-19T10:20:18;22.67;;;5.90;;
5967;SDS011;3010;51.028;4.170;2023-11-19T10:22:44;30.60;;;6.70;;
5967;SDS011;3010;51.028;4.170;2023-11-19T10:25:24;30.20;;;6.20;;
5967;SDS011;3010;51.028;4.170;2023-11-19T10:27:53;34.50;;;6.00;;
5967;SDS011;3010;51.028;4.170;2023-11-19T10:30:23;31.53;;;6.67;;
5967;SDS011;3010;51.028;4.170;2023-11-19T10:33:08;31.73;;;7.03;;
5967;SDS011;3010;51.028;4.170;2023-11-19T10:35:34;28.10;;;5.80;;
5967;SDS011;3010;51.028;4.170;2023-11-19T10:38:01;27.50;;;6.40;;
5967;SDS011;3010;51.028;4.170;2023-11-19T10:40:48;23.43;;;5.27;;
5967;SDS011;3010;51.028;4.170;2023-11-19T10:43:08;29.07;;;6.13;;
5967;SDS011;3010;51.028;4.170;2023-11-19T10:45:34;20.60;;;6.77;;
5967;SDS011;3010;51.028;4.170;2023-11-19T10:48:01;32.07;;;7.17;;
5967;SDS011;3010;51.028;4.170;2023-11-19T10:50:27;27.63;;;6.87;;
5967;SDS011;3010;51.028;4.170;2023-11-19T10:52:56;24.43;;;6.43;;
5967;SDS011;3010;51.028;4.170;2023-11-19T10:55:27;30.17;;;6.67;;
5967;SDS011;3010;51.028;4.170;2023-11-19T10:57:53;25.53;;;6.10;;
5967;SDS011;3010;51.028;4.170;2023-11-19T11:00:19;29.13;;;6.07;;
5967;SDS011;3010;51.028;4.170;2023-11-19T11:02:47;22.00;;;5.50;;
5967;SDS011;3010;51.028;4.170;2023-11-19T11:05:12;22.87;;;5.87;;
5967;SDS011;3010;51.028;4.170;2023-11-19T11:07:39;24.60;;;5.63;;
5967;SDS011;3010;51.028;4.170;2023-11-19T11:10:06;24.03;;;5.13;;
5967;SDS011;3010;51.028;4.170;2023-11-19T11:12:33;24.27;;;5.93;;
5967;SDS011;3010;51.028;4.170;2023-11-19T11:14:59;22.87;;;5.60;;
5967;SDS011;3010;51.028;4.170;2023-11-19T11:17:26;24.23;;;6.20;;
5967;SDS011;3010;51.028;4.170;2023-11-19T11:19:52;19.47;;;5.50;;
5967;SDS011;3010;51.028;4.170;2023-11-19T11:22:19;19.13;;;4.97;;
5967;SDS011;3010;51.028;4.170;2023-11-19T11:27:38;24.57;;;6.27;;
5967;SDS011;3010;51.028;4.170;2023-11-19T11:33:06;27.35;;;6.55;;
5967;SDS011;3010;51.028;4.170;2023-11-19T11:38:08;23.53;;;5.27;;
5967;SDS011;3010;51.028;4.170;2023-11-19T11:40:34;24.53;;;5.23;;
5967;SDS011;3010;51.028;4.170;2023-11-19T11:43:01;21.67;;;5.80;;
5967;SDS011;3010;51.028;4.170;2023-11-19T11:45:37;23.57;;;5.87;;
5967;SDS011;3010;51.028;4.170;2023-11-19T11:48:10;22.80;;;6.33;;
5967;SDS011;3010;51.028;4.170;2023-11-19T11:50:36;23.67;;;6.20;;
5967;SDS011;3010;51.028;4.170;2023-11-19T11:55:36;26.70;;;6.57;;
5967;SDS011;3010;51.028;4.170;2023-11-19T11:58:07;28.20;;;7.63;;
5967;SDS011;3010;51.028;4.170;2023-11-19T12:00:38;32.43;;;6.97;;
5967;SDS011;3010;51.028;4.170;2023-11-19T12:03:04;31.30;;;7.17;;
5967;SDS011;3010;51.028;4.170;2023-11-19T12:05:30;37.40;;;7.93;;
5967;SDS011;3010;51.028;4.170;2023-11-19T12:08:00;41.10;;;7.80;;
5967;SDS011;3010;51.028;4.170;2023-11-19T12:10:26;35.30;;;7.43;;
5967;SDS011;3010;51.028;4.170;2023-11-19T12:12:52;31.90;;;7.23;;
5967;SDS011;3010;51.028;4.170;2023-11-19T12:15:19;40.33;;;7.17;;
5967;SDS011;3010;51.028;4.170;2023-11-19T12:17:49;30.87;;;6.80;;
5967;SDS011;3010;51.028;4.170;2023-11-19T12:20:16;30.83;;;6.83;;
5967;SDS011;3010;51.028;4.170;2023-11-19T12:22:45;29.70;;;6.90;;
5967;SDS011;3010;51.028;4.170;2023-11-19T12:25:11;25.57;;;6.47;;
5967;SDS011;3010;51.028;4.170;2023-11-19T12:27:41;26.10;;;5.57;;
5967;SDS011;3010;51.028;4.170;2023-11-19T12:30:07;26.17;;;6.00;;
5967;SDS011;3010;51.028;4.170;2023-11-19T12:32:40;21.77;;;5.23;;
5967;SDS011;3010;51.028;4.170;2023-11-19T12:35:06;26.27;;;6.17;;
5967;SDS011;3010;51.028;4.170;2023-11-19T12:37:33;20.47;;;4.93;;
5967;SDS011;3010;51.028;4.170;2023-11-19T12:39:59;26.70;;;6.03;;
5967;SDS011;3010;51.028;4.170;2023-11-19T12:42:35;24.97;;;5.50;;
5967;SDS011;3010;51.028;4.170;2023-11-19T12:45:01;21.80;;;5.23;;
5967;SDS011;3010;51.028;4.170;2023-11-19T12:47:28;24.43;;;5.83;;
5967;SDS011;3010;51.028;4.170;2023-11-19T12:49:57;24.97;;;6.53;;
5967;SDS011;3010;51.028;4.170;2023-11-19T12:52:24;28.17;;;6.30;;
5967;SDS011;3010;51.028;4.170;2023-11-19T12:54:50;24.53;;;6.00;;
5967;SDS011;3010;51.028;4.170;2023-11-19T12:57:17;24.17;;;6.40;;
5967;SDS011;3010;51.028;4.170;2023-11-19T12:59:56;27.17;;;6.65;;
5967;SDS011;3010;51.028;4.170;2023-11-19T13:02:22;29.37;;;6.60;;
5967;SDS011;3010;51.028;4.170;2023-11-19T13:04:49;25.37;;;6.37;;
5967;SDS011;3010;51.028;4.170;2023-11-19T13:07:20;34.42;;;7.80;;
5967;SDS011;3010;51.028;4.170;2023-11-19T13:09:42;41.40;;;7.47;;
5967;SDS011;3010;51.028;4.170;2023-11-19T13:12:12;36.97;;;7.57;;
5967;SDS011;3010;51.028;4.170;2023-11-19T13:14:38;36.77;;;7.80;;
5967;SDS011;3010;51.028;4.170;2023-11-19T13:17:05;35.60;;;8.15;;
5967;SDS011;3010;51.028;4.170;2023-11-19T13:19:31;32.17;;;7.10;;
5967;SDS011;3010;51.028;4.170;2023-11-19T13:21:58;26.43;;;7.40;;
5967;SDS011;3010;51.028;4.170;2023-11-19T13:24:25;33.83;;;6.67;;
5967;SDS011;3010;51.028;4.170;2023-11-19T13:26:51;33.07;;;7.03;;
5967;SDS011;3010;51.028;4.170;2023-11-19T13:29:18;33.13;;;7.22;;
5967;SDS011;3010;51.028;4.170;2023-11-19T13:31:44;30.12;;;7.60;;
5967;SDS011;3010;51.028;4.170;2023-11-19T13:34:11;36.37;;;8.03;;
5967;SDS011;3010;51.028;4.170;2023-11-19T13:36:38;25.23;;;6.43;;
5967;SDS011;3010;51.028;4.170;2023-11-19T13:39:04;34.30;;;8.60;;
5967;SDS011;3010;51.028;4.170;2023-11-19T13:41:31;32.90;;;7.33;;
5967;SDS011;3010;51.028;4.170;2023-11-19T13:43:57;36.23;;;7.43;;
5967;SDS011;3010;51.028;4.170;2023-11-19T13:46:24;29.73;;;6.37;;
5967;SDS011;3010;51.028;4.170;2023-11-19T13:48:50;31.33;;;7.20;;
5967;SDS011;3010;51.028;4.170;2023-11-19T13:51:17;28.93;;;6.40;;
5967;SDS011;3010;51.028;4.170;2023-11-19T13:53:44;24.80;;;6.30;;
5967;SDS011;3010;51.028;4.170;2023-11-19T13:56:10;37.40;;;6.20;;
5967;SDS011;3010;51.028;4.170;2023-11-19T13:58:37;31.37;;;6.27;;
5967;SDS011;3010;51.028;4.170;2023-11-19T14:01:03;31.33;;;6.37;;
5967;SDS011;3010;51.028;4.170;2023-11-19T14:03:30;20.30;;;5.87;;
5967;SDS011;3010;51.028;4.170;2023-11-19T14:05:57;27.42;;;6.82;;
5967;SDS011;3010;51.028;4.170;2023-11-19T14:08:23;30.53;;;6.10;;
5967;SDS011;3010;51.028;4.170;2023-11-19T14:10:50;29.67;;;6.50;;
5967;SDS011;3010;51.028;4.170;2023-11-19T14:13:16;26.80;;;6.22;;
5967;SDS011;3010;51.028;4.170;2023-11-19T14:15:43;25.15;;;6.03;;
5967;SDS011;3010;51.028;4.170;2023-11-19T14:18:10;33.10;;;6.47;;
5967;SDS011;3010;51.028;4.170;2023-11-19T14:20:36;33.67;;;6.93;;
5967;SDS011;3010;51.028;4.170;2023-11-19T14:23:03;26.77;;;6.13;;
5967;SDS011;3010;51.028;4.170;2023-11-19T14:25:29;26.63;;;6.00;;
5967;SDS011;3010;51.028;4.170;2023-11-19T14:27:56;34.33;;;7.53;;
5967;SDS011;3010;51.028;4.170;2023-11-19T14:30:23;36.27;;;7.17;;
5967;SDS011;3010;51.028;4.170;2023-11-19T14:32:49;30.97;;;6.40;;
5967;SDS011;3010;51.028;4.170;2023-11-19T14:35:16;35.30;;;6.17;;
5967;SDS011;3010;51.028;4.170;2023-11-19T14:37:42;36.73;;;6.50;;
5967;SDS011;3010;51.028;4.170;2023-11-19T14:40:09;42.80;;;7.50;;
5967;SDS011;3010;51.028;4.170;2023-11-19T14:42:35;43.40;;;7.67;;
5967;SDS011;3010;51.028;4.170;2023-11-19T14:45:02;35.47;;;6.90;;
5967;SDS011;3010;51.028;4.170;2023-11-19T14:47:29;35.43;;;7.93;;
5967;SDS011;3010;51.028;4.170;2023-11-19T14:49:55;32.97;;;6.40;;
5967;SDS011;3010;51.028;4.170;2023-11-19T14:52:22;34.63;;;6.37;;
5967;SDS011;3010;51.028;4.170;2023-11-19T14:54:48;43.05;;;7.47;;
5967;SDS011;3010;51.028;4.170;2023-11-19T14:57:15;37.03;;;6.73;;
5967;SDS011;3010;51.028;4.170;2023-11-19T14:59:42;38.53;;;7.78;;
5967;SDS011;3010;51.028;4.170;2023-11-19T15:02:08;34.30;;;7.00;;
5967;SDS011;3010;51.028;4.170;2023-11-19T15:04:35;41.73;;;7.60;;
5967;SDS011;3010;51.028;4.170;2023-11-19T15:07:01;33.23;;;6.30;;
5967;SDS011;3010;51.028;4.170;2023-11-19T15:09:28;37.70;;;6.60;;